sensor_id;sensor_type;location;lat;lon;timestamp;P1;durP1;ratioP1;P2;durP2;ratioP2
20381;SDS011;10350;51.280;12.400;2024-03-06T00:02:25;56.33;;;51.33;;
20381;SDS011;10350;51.280;12.400;2024-03-06T00:04:51;57.15;;;51.47;;
20381;SDS011;10350;51.280;12.400;2024-03-06T00:07:18;55.88;;;51.25;;
20381;SDS011;10350;51.280;12.400;2024-03-06T00:09:44;53.55;;;48.78;;
20381;SDS011;10350;51.280;12.400;2024-03-06T00:12:10;53.35;;;48.90;;
20381;SDS011;10350;51.280;12.400;2024-03-06T00:14:35;54.17;;;49.50;;
20381;SDS011;10350;51.280;12.400;2024-03-06T00:17:02;50.47;;;46.30;;
20381;SDS011;10350;51.280;12.400;2024-03-06T00:19:29;54.20;;;49.53;;
20381;SDS011;10350;51.280;12.400;2024-03-06T00:21:55;56.20;;;50.55;;
20381;SDS011;10350;51.280;12.400;2024-03-06T00:24:26;54.72;;;49.72;;
20381;SDS011;10350;51.280;12.400;2024-03-06T00:26:52;58.42;;;53.45;;
20381;SDS011;10350;51.280;12.400;2024-03-06T00:29:18;56.70;;;51.92;;
20381;SDS011;10350;51.280;12.400;2024-03-06T00:31:45;55.13;;;50.65;;
20381;SDS011;10350;51.280;12.400;2024-03-06T00:34:11;55.88;;;51.00;;
20381;SDS011;10350;51.280;12.400;2024-03-06T00:36:41;55.22;;;50.17;;
20381;SDS011;10350;51.280;12.400;2024-03-06T00:39:07;57.00;;;52.22;;
20381;SDS011;10350;51.280;12.400;2024-03-06T00:41:33;54.00;;;49.45;;
20381;SDS011;10350;51.280;12.400;2024-03-06T00:43:59;56.40;;;51.40;;
20381;SDS011;10350;51.280;12.400;2024-03-06T00:46:25;52.13;;;47.85;;
20381;SDS011;10350;51.280;12.400;2024-03-06T00:48:51;56.25;;;51.58;;
20381;SDS011;10350;51.280;12.400;2024-03-06T00:51:17;51.30;;;46.67;;
20381;SDS011;10350;51.280;12.400;2024-03-06T00:53:44;52.88;;;48.15;;
20381;SDS011;10350;51.280;12.400;2024-03-06T00:56:10;54.17;;;49.67;;
20381;SDS011;10350;51.280;12.400;2024-03-06T00:58:36;57.40;;;52.08;;
20381;SDS011;10350;51.280;12.400;2024-03-06T01:01:02;55.95;;;50.95;;
20381;SDS011;10350;51.280;12.400;2024-03-06T01:03:27;54.92;;;50.08;;
20381;SDS011;10350;51.280;12.400;2024-03-06T01:05:53;51.95;;;47.58;;
20381;SDS011;10350;51.280;12.400;2024-03-06T01:08:21;54.72;;;49.92;;
20381;SDS011;10350;51.280;12.400;2024-03-06T01:10:47;51.28;;;46.97;;
20381;SDS011;10350;51.280;12.400;2024-03-06T01:13:13;51.00;;;47.05;;
20381;SDS011;10350;51.280;12.400;2024-03-06T01:15:39;48.15;;;43.97;;
20381;SDS011;10350;51.280;12.400;2024-03-06T01:18:05;47.30;;;43.10;;
20381;SDS011;10350;51.280;12.400;2024-03-06T01:20:31;46.35;;;42.63;;
20381;SDS011;10350;51.280;12.400;2024-03-06T01:22:57;45.15;;;41.22;;
20381;SDS011;10350;51.280;12.400;2024-03-06T01:25:23;43.60;;;39.40;;
20381;SDS011;10350;51.280;12.400;2024-03-06T01:27:49;42.40;;;38.53;;
20381;SDS011;10350;51.280;12.400;2024-03-06T01:30:15;42.47;;;38.33;;
20381;SDS011;10350;51.280;12.400;2024-03-06T01:32:43;44.45;;;40.35;;
20381;SDS011;10350;51.280;12.400;2024-03-06T01:35:09;44.22;;;39.95;;
20381;SDS011;10350;51.280;12.400;2024-03-06T01:37:35;44.30;;;39.97;;
20381;SDS011;10350;51.280;12.400;2024-03-06T01:40:02;43.83;;;40.13;;
20381;SDS011;10350;51.280;12.400;2024-03-06T01:42:29;40.33;;;36.90;;
20381;SDS011;10350;51.280;12.400;2024-03-06T01:44:55;40.65;;;36.85;;
20381;SDS011;10350;51.280;12.400;2024-03-06T01:47:25;43.58;;;39.85;;
20381;SDS011;10350;51.280;12.400;2024-03-06T01:50:19;44.78;;;40.38;;
20381;SDS011;10350;51.280;12.400;2024-03-06T01:52:45;43.15;;;39.40;;
20381;SDS011;10350;51.280;12.400;2024-03-06T01:55:13;41.10;;;37.53;;
20381;SDS011;10350;51.280;12.400;2024-03-06T01:57:40;43.45;;;39.97;;
20381;SDS011;10350;51.280;12.400;2024-03-06T02:00:08;43.40;;;39.85;;
20381;SDS011;10350;51.280;12.400;2024-03-06T02:02:41;43.90;;;39.78;;
20381;SDS011;10350;51.280;12.400;2024-03-06T02:05:08;46.78;;;42.13;;
20381;SDS011;10350;51.280;12.400;2024-03-06T02:07:34;44.75;;;40.92;;
20381;SDS011;10350;51.280;12.400;2024-03-06T02:10:39;46.60;;;43.00;;
20381;SDS011;10350;51.280;12.400;2024-03-06T02:13:29;43.25;;;39.53;;
20381;SDS011;10350;51.280;12.400;2024-03-06T02:19:44;42.95;;;39.38;;
20381;SDS011;10350;51.280;12.400;2024-03-06T02:22:13;44.90;;;41.30;;
20381;SDS011;10350;51.280;12.400;2024-03-06T02:25:10;43.10;;;39.40;;
20381;SDS011;10350;51.280;12.400;2024-03-06T02:27:57;43.75;;;39.80;;
20381;SDS011;10350;51.280;12.400;2024-03-06T02:30:44;41.67;;;38.00;;
20381;SDS011;10350;51.280;12.400;2024-03-06T02:33:13;44.15;;;39.92;;
20381;SDS011;10350;51.280;12.400;2024-03-06T02:35:39;43.35;;;39.70;;
20381;SDS011;10350;51.280;12.400;2024-03-06T02:38:05;46.38;;;42.03;;
20381;SDS011;10350;51.280;12.400;2024-03-06T02:40:32;43.70;;;39.80;;
20381;SDS011;10350;51.280;12.400;2024-03-06T02:42:58;43.80;;;39.70;;
20381;SDS011;10350;51.280;12.400;2024-03-06T02:45:24;45.50;;;41.70;;
20381;SDS011;10350;51.280;12.400;2024-03-06T02:47:50;45.53;;;41.42;;
20381;SDS011;10350;51.280;12.400;2024-03-06T02:50:17;46.42;;;42.33;;
20381;SDS011;10350;51.280;12.400;2024-03-06T02:52:43;43.33;;;39.38;;
20381;SDS011;10350;51.280;12.400;2024-03-06T02:55:10;46.83;;;42.58;;
20381;SDS011;10350;51.280;12.400;2024-03-06T02:57:36;44.80;;;41.00;;
20381;SDS011;10350;51.280;12.400;2024-03-06T03:00:08;47.80;;;43.70;;
20381;SDS011;10350;51.280;12.400;2024-03-06T03:03:17;46.47;;;42.08;;
20381;SDS011;10350;51.280;12.400;2024-03-06T03:05:45;43.47;;;39.92;;
20381;SDS011;10350;51.280;12.400;2024-03-06T03:08:13;44.00;;;40.13;;
20381;SDS011;10350;51.280;12.400;2024-03-06T03:14:14;44.47;;;40.70;;
20381;SDS011;10350;51.280;12.400;2024-03-06T03:17:32;42.97;;;39.17;;
20381;SDS011;10350;51.280;12.400;2024-03-06T03:27:07;40.97;;;37.60;;
20381;SDS011;10350;51.280;12.400;2024-03-06T03:30:20;42.63;;;38.90;;
20381;SDS011;10350;51.280;12.400;2024-03-06T03:33:25;43.40;;;39.83;;
20381;SDS011;10350;51.280;12.400;2024-03-06T03:35:51;41.88;;;38.08;;
20381;SDS011;10350;51.280;12.400;2024-03-06T03:38:18;42.00;;;37.95;;
20381;SDS011;10350;51.280;12.400;2024-03-06T03:40:44;39.63;;;36.13;;
20381;SDS011;10350;51.280;12.400;2024-03-06T03:46:52;35.67;;;32.58;;
20381;SDS011;10350;51.280;12.400;2024-03-06T03:53:09;35.05;;;32.10;;
20381;SDS011;10350;51.280;12.400;2024-03-06T03:55:35;36.42;;;33.30;;
20381;SDS011;10350;51.280;12.400;2024-03-06T03:58:02;36.80;;;33.40;;
20381;SDS011;10350;51.280;12.400;2024-03-06T04:00:29;39.85;;;35.97;;
20381;SDS011;10350;51.280;12.400;2024-03-06T04:05:59;36.35;;;33.33;;
20381;SDS011;10350;51.280;12.400;2024-03-06T04:08:25;37.03;;;33.55;;
20381;SDS011;10350;51.280;12.400;2024-03-06T04:10:51;35.33;;;31.98;;
20381;SDS011;10350;51.280;12.400;2024-03-06T04:13:17;38.00;;;34.42;;
20381;SDS011;10350;51.280;12.400;2024-03-06T04:15:45;39.60;;;36.28;;
20381;SDS011;10350;51.280;12.400;2024-03-06T04:18:11;41.70;;;35.88;;
20381;SDS011;10350;51.280;12.400;2024-03-06T04:20:37;36.35;;;32.90;;
20381;SDS011;10350;51.280;12.400;2024-03-06T04:23:03;39.08;;;35.30;;
20381;SDS011;10350;51.280;12.400;2024-03-06T04:25:29;36.72;;;33.17;;
20381;SDS011;10350;51.280;12.400;2024-03-06T04:27:55;38.17;;;34.50;;
20381;SDS011;10350;51.280;12.400;2024-03-06T04:30:21;38.10;;;34.70;;
20381;SDS011;10350;51.280;12.400;2024-03-06T04:32:48;36.40;;;33.05;;
20381;SDS011;10350;51.280;12.400;2024-03-06T04:35:14;39.60;;;35.55;;
20381;SDS011;10350;51.280;12.400;2024-03-06T04:37:40;36.70;;;32.70;;
20381;SDS011;10350;51.280;12.400;2024-03-06T04:40:07;36.55;;;33.08;;
20381;SDS011;10350;51.280;12.400;2024-03-06T04:42:34;37.95;;;34.15;;
20381;SDS011;10350;51.280;12.400;2024-03-06T04:45:03;39.40;;;32.60;;
20381;SDS011;10350;51.280;12.400;2024-03-06T04:47:29;42.60;;;38.08;;
20381;SDS011;10350;51.280;12.400;2024-03-06T04:49:56;39.40;;;35.70;;
20381;SDS011;10350;51.280;12.400;2024-03-06T04:52:22;40.88;;;35.80;;
20381;SDS011;10350;51.280;12.400;2024-03-06T04:54:49;40.20;;;35.75;;
20381;SDS011;10350;51.280;12.400;2024-03-06T04:57:14;37.42;;;33.58;;
20381;SDS011;10350;51.280;12.400;2024-03-06T04:59:41;43.83;;;37.25;;
20381;SDS011;10350;51.280;12.400;2024-03-06T05:02:07;41.03;;;36.65;;
20381;SDS011;10350;51.280;12.400;2024-03-06T05:04:33;42.03;;;37.78;;
20381;SDS011;10350;51.280;12.400;2024-03-06T05:06:59;41.70;;;37.35;;
20381;SDS011;10350;51.280;12.400;2024-03-06T05:09:25;45.83;;;34.80;;
20381;SDS011;10350;51.280;12.400;2024-03-06T05:11:51;40.55;;;36.17;;
20381;SDS011;10350;51.280;12.400;2024-03-06T05:14:17;41.40;;;37.55;;
20381;SDS011;10350;51.280;12.400;2024-03-06T05:16:43;42.45;;;36.63;;
20381;SDS011;10350;51.280;12.400;2024-03-06T05:19:09;42.42;;;35.80;;
20381;SDS011;10350;51.280;12.400;2024-03-06T05:21:35;40.50;;;36.22;;
20381;SDS011;10350;51.280;12.400;2024-03-06T05:24:02;41.65;;;37.30;;
20381;SDS011;10350;51.280;12.400;2024-03-06T05:26:27;41.28;;;37.30;;
20381;SDS011;10350;51.280;12.400;2024-03-06T05:28:53;42.47;;;38.05;;
20381;SDS011;10350;51.280;12.400;2024-03-06T05:31:19;39.90;;;36.15;;
20381;SDS011;10350;51.280;12.400;2024-03-06T05:33:46;40.00;;;35.88;;
20381;SDS011;10350;51.280;12.400;2024-03-06T05:36:14;39.80;;;35.60;;
20381;SDS011;10350;51.280;12.400;2024-03-06T05:38:40;40.10;;;35.75;;
20381;SDS011;10350;51.280;12.400;2024-03-06T05:41:06;41.58;;;36.92;;
20381;SDS011;10350;51.280;12.400;2024-03-06T05:43:33;41.80;;;37.22;;
20381;SDS011;10350;51.280;12.400;2024-03-06T05:45:59;42.85;;;38.33;;
20381;SDS011;10350;51.280;12.400;2024-03-06T05:48:25;41.35;;;37.28;;
20381;SDS011;10350;51.280;12.400;2024-03-06T05:50:51;43.33;;;38.65;;
20381;SDS011;10350;51.280;12.400;2024-03-06T05:53:17;38.83;;;34.78;;
20381;SDS011;10350;51.280;12.400;2024-03-06T05:55:43;48.00;;;39.35;;
20381;SDS011;10350;51.280;12.400;2024-03-06T05:58:09;40.85;;;36.33;;
20381;SDS011;10350;51.280;12.400;2024-03-06T06:00:35;44.10;;;37.60;;
20381;SDS011;10350;51.280;12.400;2024-03-06T06:03:03;40.92;;;36.53;;
20381;SDS011;10350;51.280;12.400;2024-03-06T06:05:28;44.10;;;39.30;;
20381;SDS011;10350;51.280;12.400;2024-03-06T06:07:54;37.85;;;34.00;;
20381;SDS011;10350;51.280;12.400;2024-03-06T06:10:20;40.53;;;35.55;;
20381;SDS011;10350;51.280;12.400;2024-03-06T06:12:46;43.35;;;35.55;;
20381;SDS011;10350;51.280;12.400;2024-03-06T06:15:12;41.65;;;37.58;;
20381;SDS011;10350;51.280;12.400;2024-03-06T06:17:39;41.58;;;37.35;;
20381;SDS011;10350;51.280;12.400;2024-03-06T06:20:08;41.20;;;36.90;;
20381;SDS011;10350;51.280;12.400;2024-03-06T06:22:38;38.25;;;34.58;;
20381;SDS011;10350;51.280;12.400;2024-03-06T06:25:05;42.42;;;38.13;;
20381;SDS011;10350;51.280;12.400;2024-03-06T06:27:32;41.35;;;36.88;;
20381;SDS011;10350;51.280;12.400;2024-03-06T06:29:58;43.22;;;35.85;;
20381;SDS011;10350;51.280;12.400;2024-03-06T06:32:24;38.58;;;34.58;;
20381;SDS011;10350;51.280;12.400;2024-03-06T06:34:50;47.58;;;40.17;;
20381;SDS011;10350;51.280;12.400;2024-03-06T06:37:16;43.55;;;36.78;;
20381;SDS011;10350;51.280;12.400;2024-03-06T06:39:44;44.90;;;38.63;;
20381;SDS011;10350;51.280;12.400;2024-03-06T06:42:10;41.35;;;37.05;;
20381;SDS011;10350;51.280;12.400;2024-03-06T06:44:36;42.92;;;38.58;;
20381;SDS011;10350;51.280;12.400;2024-03-06T06:47:02;44.08;;;37.85;;
20381;SDS011;10350;51.280;12.400;2024-03-06T06:49:28;43.10;;;39.08;;
20381;SDS011;10350;51.280;12.400;2024-03-06T06:51:54;42.88;;;38.30;;
20381;SDS011;10350;51.280;12.400;2024-03-06T06:54:20;45.17;;;37.95;;
20381;SDS011;10350;51.280;12.400;2024-03-06T06:56:46;43.45;;;37.90;;
20381;SDS011;10350;51.280;12.400;2024-03-06T06:59:12;51.17;;;39.30;;
20381;SDS011;10350;51.280;12.400;2024-03-06T07:01:38;43.58;;;38.85;;
20381;SDS011;10350;51.280;12.400;2024-03-06T07:04:05;42.10;;;37.30;;
20381;SDS011;10350;51.280;12.400;2024-03-06T07:06:31;47.22;;;42.30;;
20381;SDS011;10350;51.280;12.400;2024-03-06T07:08:57;46.75;;;42.03;;
20381;SDS011;10350;51.280;12.400;2024-03-06T07:11:23;51.10;;;45.30;;
20381;SDS011;10350;51.280;12.400;2024-03-06T07:13:50;51.30;;;45.80;;
20381;SDS011;10350;51.280;12.400;2024-03-06T07:16:16;49.13;;;44.35;;
20381;SDS011;10350;51.280;12.400;2024-03-06T07:18:42;54.40;;;49.05;;
20381;SDS011;10350;51.280;12.400;2024-03-06T07:21:08;50.42;;;45.42;;
20381;SDS011;10350;51.280;12.400;2024-03-06T07:23:34;52.03;;;46.63;;
20381;SDS011;10350;51.280;12.400;2024-03-06T07:26:00;55.58;;;49.95;;
20381;SDS011;10350;51.280;12.400;2024-03-06T07:28:26;51.05;;;45.88;;
20381;SDS011;10350;51.280;12.400;2024-03-06T07:30:52;53.85;;;47.95;;
20381;SDS011;10350;51.280;12.400;2024-03-06T07:33:18;55.00;;;48.55;;
20381;SDS011;10350;51.280;12.400;2024-03-06T07:35:44;57.95;;;49.53;;
20381;SDS011;10350;51.280;12.400;2024-03-06T07:38:10;49.92;;;44.70;;
20381;SDS011;10350;51.280;12.400;2024-03-06T07:40:36;51.97;;;46.50;;
20381;SDS011;10350;51.280;12.400;2024-03-06T07:43:02;54.22;;;48.85;;
20381;SDS011;10350;51.280;12.400;2024-03-06T07:45:29;52.67;;;47.08;;
20381;SDS011;10350;51.280;12.400;2024-03-06T07:47:55;54.60;;;46.92;;
20381;SDS011;10350;51.280;12.400;2024-03-06T07:50:21;52.70;;;44.90;;
20381;SDS011;10350;51.280;12.400;2024-03-06T07:52:47;52.13;;;46.15;;
20381;SDS011;10350;51.280;12.400;2024-03-06T07:55:13;49.92;;;44.58;;
20381;SDS011;10350;51.280;12.400;2024-03-06T07:57:39;55.45;;;43.90;;
20381;SDS011;10350;51.280;12.400;2024-03-06T08:00:06;59.55;;;47.65;;
20381;SDS011;10350;51.280;12.400;2024-03-06T08:02:44;53.10;;;47.85;;
20381;SDS011;10350;51.280;12.400;2024-03-06T08:05:15;62.03;;;53.75;;
20381;SDS011;10350;51.280;12.400;2024-03-06T08:07:41;63.90;;;57.13;;
20381;SDS011;10350;51.280;12.400;2024-03-06T08:10:10;63.38;;;56.25;;
20381;SDS011;10350;51.280;12.400;2024-03-06T08:12:40;60.20;;;54.15;;
20381;SDS011;10350;51.280;12.400;2024-03-06T08:15:07;58.20;;;52.03;;
20381;SDS011;10350;51.280;12.400;2024-03-06T08:17:34;59.40;;;50.10;;
20381;SDS011;10350;51.280;12.400;2024-03-06T08:20:01;58.28;;;52.05;;
20381;SDS011;10350;51.280;12.400;2024-03-06T08:22:30;74.82;;;68.07;;
20381;SDS011;10350;51.280;12.400;2024-03-06T08:24:56;86.53;;;79.28;;
20381;SDS011;10350;51.280;12.400;2024-03-06T08:27:22;80.25;;;73.25;;
20381;SDS011;10350;51.280;12.400;2024-03-06T08:29:48;69.43;;;62.88;;
20381;SDS011;10350;51.280;12.400;2024-03-06T08:32:14;63.95;;;57.63;;
20381;SDS011;10350;51.280;12.400;2024-03-06T08:34:40;52.00;;;46.92;;
20381;SDS011;10350;51.280;12.400;2024-03-06T08:37:06;52.33;;;47.47;;
20381;SDS011;10350;51.280;12.400;2024-03-06T08:39:32;55.20;;;49.20;;
20381;SDS011;10350;51.280;12.400;2024-03-06T08:41:58;53.40;;;48.42;;
20381;SDS011;10350;51.280;12.400;2024-03-06T08:44:25;52.17;;;46.97;;
20381;SDS011;10350;51.280;12.400;2024-03-06T08:46:53;54.10;;;49.23;;
20381;SDS011;10350;51.280;12.400;2024-03-06T08:49:19;50.88;;;46.42;;
20381;SDS011;10350;51.280;12.400;2024-03-06T08:51:45;51.20;;;46.47;;
20381;SDS011;10350;51.280;12.400;2024-03-06T08:54:10;54.38;;;49.47;;
20381;SDS011;10350;51.280;12.400;2024-03-06T08:56:36;49.88;;;45.05;;
20381;SDS011;10350;51.280;12.400;2024-03-06T08:59:02;50.45;;;45.70;;
20381;SDS011;10350;51.280;12.400;2024-03-06T09:01:28;53.90;;;49.03;;
20381;SDS011;10350;51.280;12.400;2024-03-06T09:03:54;50.92;;;46.17;;
20381;SDS011;10350;51.280;12.400;2024-03-06T09:06:22;50.78;;;46.38;;
20381;SDS011;10350;51.280;12.400;2024-03-06T09:08:48;55.35;;;49.67;;
20381;SDS011;10350;51.280;12.400;2024-03-06T09:11:14;52.85;;;47.55;;
20381;SDS011;10350;51.280;12.400;2024-03-06T09:13:40;52.92;;;48.05;;
20381;SDS011;10350;51.280;12.400;2024-03-06T09:16:06;49.50;;;44.83;;
20381;SDS011;10350;51.280;12.400;2024-03-06T09:18:32;55.30;;;49.95;;
20381;SDS011;10350;51.280;12.400;2024-03-06T09:20:58;54.03;;;49.15;;
20381;SDS011;10350;51.280;12.400;2024-03-06T09:23:25;52.15;;;47.33;;
20381;SDS011;10350;51.280;12.400;2024-03-06T09:25:51;55.95;;;51.25;;
20381;SDS011;10350;51.280;12.400;2024-03-06T09:28:19;60.03;;;54.80;;
20381;SDS011;10350;51.280;12.400;2024-03-06T09:30:45;62.17;;;56.95;;
20381;SDS011;10350;51.280;12.400;2024-03-06T09:33:11;63.17;;;57.65;;
20381;SDS011;10350;51.280;12.400;2024-03-06T09:35:37;62.00;;;56.88;;
20381;SDS011;10350;51.280;12.400;2024-03-06T09:38:03;62.58;;;57.17;;
20381;SDS011;10350;51.280;12.400;2024-03-06T09:40:29;65.07;;;59.13;;
20381;SDS011;10350;51.280;12.400;2024-03-06T09:42:55;61.38;;;56.10;;
20381;SDS011;10350;51.280;12.400;2024-03-06T09:45:21;62.65;;;56.97;;
20381;SDS011;10350;51.280;12.400;2024-03-06T09:47:49;62.10;;;56.63;;
20381;SDS011;10350;51.280;12.400;2024-03-06T09:50:18;60.40;;;54.80;;
20381;SDS011;10350;51.280;12.400;2024-03-06T09:52:49;60.38;;;55.28;;
20381;SDS011;10350;51.280;12.400;2024-03-06T09:55:17;59.45;;;54.10;;
20381;SDS011;10350;51.280;12.400;2024-03-06T09:57:43;58.10;;;52.88;;
20381;SDS011;10350;51.280;12.400;2024-03-06T10:00:09;60.38;;;55.15;;
20381;SDS011;10350;51.280;12.400;2024-03-06T10:02:41;56.65;;;51.95;;
20381;SDS011;10350;51.280;12.400;2024-03-06T10:05:23;59.30;;;54.08;;
20381;SDS011;10350;51.280;12.400;2024-03-06T10:07:50;60.08;;;54.75;;
20381;SDS011;10350;51.280;12.400;2024-03-06T10:10:17;56.65;;;52.00;;
20381;SDS011;10350;51.280;12.400;2024-03-06T10:12:44;64.13;;;58.70;;
20381;SDS011;10350;51.280;12.400;2024-03-06T10:15:10;63.95;;;58.83;;
20381;SDS011;10350;51.280;12.400;2024-03-06T10:17:37;70.32;;;64.75;;
20381;SDS011;10350;51.280;12.400;2024-03-06T10:20:19;72.22;;;66.35;;
20381;SDS011;10350;51.280;12.400;2024-03-06T10:22:52;83.22;;;76.32;;
20381;SDS011;10350;51.280;12.400;2024-03-06T10:25:18;80.95;;;74.35;;
20381;SDS011;10350;51.280;12.400;2024-03-06T10:27:45;74.43;;;67.90;;
20381;SDS011;10350;51.280;12.400;2024-03-06T10:30:11;62.97;;;57.35;;
20381;SDS011;10350;51.280;12.400;2024-03-06T10:32:41;67.05;;;61.35;;
20381;SDS011;10350;51.280;12.400;2024-03-06T10:35:17;71.00;;;64.32;;
20381;SDS011;10350;51.280;12.400;2024-03-06T10:37:43;75.90;;;69.30;;
20381;SDS011;10350;51.280;12.400;2024-03-06T10:40:10;76.47;;;70.53;;
20381;SDS011;10350;51.280;12.400;2024-03-06T10:42:38;76.88;;;70.60;;
20381;SDS011;10350;51.280;12.400;2024-03-06T10:45:07;75.50;;;69.43;;
20381;SDS011;10350;51.280;12.400;2024-03-06T10:47:33;77.80;;;71.78;;
20381;SDS011;10350;51.280;12.400;2024-03-06T10:52:29;75.57;;;69.40;;
20381;SDS011;10350;51.280;12.400;2024-03-06T10:54:58;71.30;;;65.38;;
20381;SDS011;10350;51.280;12.400;2024-03-06T10:57:24;71.10;;;65.32;;
20381;SDS011;10350;51.280;12.400;2024-03-06T10:59:54;62.50;;;56.80;;
20381;SDS011;10350;51.280;12.400;2024-03-06T11:02:20;62.50;;;57.35;;
20381;SDS011;10350;51.280;12.400;2024-03-06T11:04:48;68.40;;;62.33;;
20381;SDS011;10350;51.280;12.400;2024-03-06T11:07:14;74.32;;;68.60;;
20381;SDS011;10350;51.280;12.400;2024-03-06T11:09:41;76.35;;;70.10;;
20381;SDS011;10350;51.280;12.400;2024-03-06T11:12:07;72.65;;;66.78;;
20381;SDS011;10350;51.280;12.400;2024-03-06T11:14:37;74.57;;;68.85;;
20381;SDS011;10350;51.280;12.400;2024-03-06T11:17:04;74.47;;;68.60;;
20381;SDS011;10350;51.280;12.400;2024-03-06T11:19:31;75.25;;;69.00;;
20381;SDS011;10350;51.280;12.400;2024-03-06T11:21:58;72.28;;;66.07;;
20381;SDS011;10350;51.280;12.400;2024-03-06T11:24:34;73.68;;;67.22;;
20381;SDS011;10350;51.280;12.400;2024-03-06T11:27:03;70.18;;;64.85;;
20381;SDS011;10350;51.280;12.400;2024-03-06T11:32:17;67.80;;;62.10;;
20381;SDS011;10350;51.280;12.400;2024-03-06T11:34:43;68.43;;;63.15;;
20381;SDS011;10350;51.280;12.400;2024-03-06T11:37:09;67.38;;;62.28;;
20381;SDS011;10350;51.280;12.400;2024-03-06T11:39:36;62.80;;;57.67;;
20381;SDS011;10350;51.280;12.400;2024-03-06T11:42:02;66.70;;;61.22;;
20381;SDS011;10350;51.280;12.400;2024-03-06T11:44:33;65.15;;;60.08;;
20381;SDS011;10350;51.280;12.400;2024-03-06T11:47:01;62.47;;;57.25;;
20381;SDS011;10350;51.280;12.400;2024-03-06T11:49:28;65.40;;;59.90;;
20381;SDS011;10350;51.280;12.400;2024-03-06T11:54:23;62.53;;;57.17;;
20381;SDS011;10350;51.280;12.400;2024-03-06T11:56:51;57.20;;;51.63;;
20381;SDS011;10350;51.280;12.400;2024-03-06T11:59:21;56.05;;;51.05;;
20381;SDS011;10350;51.280;12.400;2024-03-06T12:01:48;56.85;;;51.85;;
20381;SDS011;10350;51.280;12.400;2024-03-06T12:04:14;51.83;;;46.67;;
20381;SDS011;10350;51.280;12.400;2024-03-06T12:06:40;49.45;;;45.35;;
20381;SDS011;10350;51.280;12.400;2024-03-06T12:09:06;49.03;;;45.00;;
20381;SDS011;10350;51.280;12.400;2024-03-06T12:11:36;53.55;;;49.10;;
20381;SDS011;10350;51.280;12.400;2024-03-06T12:14:02;54.28;;;50.38;;
20381;SDS011;10350;51.280;12.400;2024-03-06T12:16:28;55.92;;;51.65;;
20381;SDS011;10350;51.280;12.400;2024-03-06T12:18:54;58.22;;;53.83;;
20381;SDS011;10350;51.280;12.400;2024-03-06T12:21:22;61.63;;;56.45;;
20381;SDS011;10350;51.280;12.400;2024-03-06T12:23:48;64.28;;;59.35;;
20381;SDS011;10350;51.280;12.400;2024-03-06T12:26:14;62.67;;;57.72;;
20381;SDS011;10350;51.280;12.400;2024-03-06T12:28:40;63.58;;;58.22;;
20381;SDS011;10350;51.280;12.400;2024-03-06T12:31:06;63.45;;;58.47;;
20381;SDS011;10350;51.280;12.400;2024-03-06T12:33:32;64.40;;;59.20;;
20381;SDS011;10350;51.280;12.400;2024-03-06T12:36:03;64.43;;;59.42;;
20381;SDS011;10350;51.280;12.400;2024-03-06T12:38:29;62.17;;;57.17;;
20381;SDS011;10350;51.280;12.400;2024-03-06T12:40:55;58.25;;;53.90;;
20381;SDS011;10350;51.280;12.400;2024-03-06T12:43:21;63.53;;;58.70;;
20381;SDS011;10350;51.280;12.400;2024-03-06T12:45:49;68.13;;;62.90;;
20381;SDS011;10350;51.280;12.400;2024-03-06T12:48:15;62.97;;;58.33;;
20381;SDS011;10350;51.280;12.400;2024-03-06T12:50:41;62.60;;;57.40;;
20381;SDS011;10350;51.280;12.400;2024-03-06T12:53:07;68.82;;;63.60;;
20381;SDS011;10350;51.280;12.400;2024-03-06T12:55:34;69.25;;;64.20;;
20381;SDS011;10350;51.280;12.400;2024-03-06T12:58:00;68.90;;;63.45;;
20381;SDS011;10350;51.280;12.400;2024-03-06T13:00:27;61.33;;;56.65;;
20381;SDS011;10350;51.280;12.400;2024-03-06T13:02:53;49.40;;;45.20;;
20381;SDS011;10350;51.280;12.400;2024-03-06T13:05:19;51.67;;;47.42;;
20381;SDS011;10350;51.280;12.400;2024-03-06T13:07:45;49.33;;;44.95;;
20381;SDS011;10350;51.280;12.400;2024-03-06T13:10:11;48.97;;;44.97;;
20381;SDS011;10350;51.280;12.400;2024-03-06T13:12:38;50.33;;;45.60;;
20381;SDS011;10350;51.280;12.400;2024-03-06T13:15:04;51.55;;;46.67;;
20381;SDS011;10350;51.280;12.400;2024-03-06T13:17:32;50.53;;;46.03;;
20381;SDS011;10350;51.280;12.400;2024-03-06T13:19:58;48.97;;;44.67;;
20381;SDS011;10350;51.280;12.400;2024-03-06T13:22:24;51.78;;;46.83;;
20381;SDS011;10350;51.280;12.400;2024-03-06T13:24:50;48.92;;;44.72;;
20381;SDS011;10350;51.280;12.400;2024-03-06T13:27:16;47.63;;;43.58;;
20381;SDS011;10350;51.280;12.400;2024-03-06T13:29:42;48.25;;;43.55;;
20381;SDS011;10350;51.280;12.400;2024-03-06T13:32:08;47.53;;;43.50;;
20381;SDS011;10350;51.280;12.400;2024-03-06T13:34:34;47.75;;;43.70;;
20381;SDS011;10350;51.280;12.400;2024-03-06T13:37:00;50.83;;;46.25;;
20381;SDS011;10350;51.280;12.400;2024-03-06T13:39:26;49.03;;;45.17;;
20381;SDS011;10350;51.280;12.400;2024-03-06T13:41:52;50.03;;;45.35;;
20381;SDS011;10350;51.280;12.400;2024-03-06T13:44:18;48.10;;;44.13;;
20381;SDS011;10350;51.280;12.400;2024-03-06T13:46:44;48.42;;;44.10;;
20381;SDS011;10350;51.280;12.400;2024-03-06T13:49:33;49.58;;;44.97;;
20381;SDS011;10350;51.280;12.400;2024-03-06T13:51:59;48.72;;;44.63;;
20381;SDS011;10350;51.280;12.400;2024-03-06T13:54:25;49.97;;;45.85;;
20381;SDS011;10350;51.280;12.400;2024-03-06T13:56:51;49.35;;;44.90;;
20381;SDS011;10350;51.280;12.400;2024-03-06T13:59:19;50.40;;;45.97;;
20381;SDS011;10350;51.280;12.400;2024-03-06T14:01:45;51.58;;;47.38;;
20381;SDS011;10350;51.280;12.400;2024-03-06T14:04:11;50.13;;;46.17;;
20381;SDS011;10350;51.280;12.400;2024-03-06T14:06:37;48.83;;;44.88;;
20381;SDS011;10350;51.280;12.400;2024-03-06T14:09:02;50.42;;;45.85;;
20381;SDS011;10350;51.280;12.400;2024-03-06T14:11:28;49.17;;;44.92;;
20381;SDS011;10350;51.280;12.400;2024-03-06T14:13:54;49.72;;;45.83;;
20381;SDS011;10350;51.280;12.400;2024-03-06T14:16:21;48.40;;;44.55;;
20381;SDS011;10350;51.280;12.400;2024-03-06T14:18:47;48.53;;;44.90;;
20381;SDS011;10350;51.280;12.400;2024-03-06T14:21:13;49.53;;;45.10;;
20381;SDS011;10350;51.280;12.400;2024-03-06T14:23:39;50.28;;;45.63;;
20381;SDS011;10350;51.280;12.400;2024-03-06T14:26:05;46.38;;;42.78;;
20381;SDS011;10350;51.280;12.400;2024-03-06T14:28:31;50.22;;;46.38;;
20381;SDS011;10350;51.280;12.400;2024-03-06T14:30:57;50.38;;;45.55;;
20381;SDS011;10350;51.280;12.400;2024-03-06T14:33:23;48.58;;;44.80;;
20381;SDS011;10350;51.280;12.400;2024-03-06T14:35:49;45.30;;;41.90;;
20381;SDS011;10350;51.280;12.400;2024-03-06T14:38:16;44.50;;;41.25;;
20381;SDS011;10350;51.280;12.400;2024-03-06T14:40:42;49.13;;;45.33;;
20381;SDS011;10350;51.280;12.400;2024-03-06T14:43:09;46.55;;;43.10;;
20381;SDS011;10350;51.280;12.400;2024-03-06T14:45:35;46.53;;;42.92;;